Aérodrome :
LOGIN :

S'inscrire | Disclaimer

   EN    FR    IT 

 










Légende :    VFR   VFR Marginal   IFR   IFR Intensif   IFR Très Intensif
Visi : 
Plafond : 
>= 8 km
>= 3000ft
5 à 8 km
1000 à 3000 ft
1500m à 5 km
500 à 1000 ft
800 à 1500m
200 à 500 ft
< 800m
< 200 ft
Symboles :   Orages  Brouillard  Fortes neiges  Fortes précipitations  Vent > 20 kt
SIGMETs :   Divers  Orages  Givrage  Turbulence  Onde Orograph.  Cendres Volcan.







- Altitude de l'aérodrome : 1768 ft


LEHC - Huesca Pirineos

DERNIER METAR :
  • 240400Z AUTO 32002KT 9999 NCD 04/M00 Q1024

METARs EXPIRÉS :
  • 240330Z AUTO 33003KT 9999 NCD 08/00 Q1024
  • 240300Z AUTO 33004KT 9999 NCD 08/00 Q1024
  • 240230Z AUTO 34004KT 9999 NCD 05/00 Q1024
  • 240200Z AUTO 33003KT 9999 NCD 04/M01 Q1024
  • 240130Z AUTO 35002KT 9999 NCD 05/M00 Q1024

TAF TAF LEHC
Valide du 24 à 03h jusqu'au 25 à 03h UTC


240200Z 2403/2503 VRB03KT 9999 FEW060 TX24/2413Z TN09/2406Z
TEMPO 2403/2408 04007KT
BECMG 2408/2410 24008KT
BECMG 2418/2421 06010KT
BECMG 2501/2503 VRB03KT
Pas de NOTAMs connus pour ce terrain.



MET'MAP, la Météo Aéronautique d'un coup d'oeil ! - Copyright ORBIFLY Décembre 2007 - Disclaimer

ORBIFLY MET'MAP TEAM :

Programmation & Développement : Alexandra Zaïnal
Conception & Développement : Baudouin d'Aumeries
Co-Programmation & Développement : Marc-Olivier Méhu
Soutien technique & logistique : Manuel Goepfert

Contact : metmap@orbifly.com




SOURCES & CREDITS :

   NOAA